Airfield :
LOGIN :

Register | Disclaimer

   EN    FR    IT 

 










Legend :    VFR   Marginal VFR   IFR   Intensive IFR   Very Intensive IFR
Visi :
Ceiling :
>= 8 km
>= 3000ft
5 to 8 km
1000 to 3000 ft
1500m to 5 km
500 to 1000 ft
800 to 1500m
200 to 500 ft
< 800m
< 200 ft
Symbols :   Thunderstorms  Fog  Heavy snow  Heavy precipitations  Wind > 20 kt
SIGMETs :     Misc.  Thunderstorms  Icing  Turbulence  Mountain Waves  Volcanic Ashes







- Airport Elevation : 42 ft
- IATA code : LMO


EGQS - Lossiemouth

CURRENT METAR :
  • 170650Z 25006KT 9999 FEW010 BKN070 15/09 Q1011 BLU NOSIG

EXPIRED METARs :
  • 170550Z 17002KT 9999 FEW014 BKN070 13/10 Q1011 BLU NOSIG
  • 170450Z 17002KT 9999 FEW005 SCT070 BKN180 11/09 Q1011 BLU

TAF TAF EGQS
Valid from the 17 at 06:00 until the 18 at 00:00 UTC


170412Z 1706/1724 22005KT CAVOK
PROB30
TEMPO 1712/1718 7000 SHRA SCT020
TEMPO 1718/1724 6000 SHRA SCT018CB
No reported NOTAMs for that airfield.
1 SIGMET reported for the Scottish FIR (EGPX) :
 
Embedded thunderstorms
EGPX SIGMET 02 VALID 170600/171000 EGRR
EGPX SCOTTISH FIR EMBD TS FCST WI N5729 W00113 - N5814 W00050 - N5815 E00112 - N5612 E00132 - N5621 W00011 - N5729 W00113 TOP FL300 MOV N 20KT NC=



MET'MAP, your aeronautical weather chart ! - Copyright ORBIFLY December 2007 - Disclaimer

ORBIFLY MET'MAP TEAM :

Programming & Development : Alexandra Zaïnal
Concept & Development : Baudouin d'Aumeries
Co-Development & Prog : Marc-Olivier Méhu
Technical & hardware support : Manuel Goepfert

Contact : metmap@orbifly.com




SOURCES & CREDITS :

   NOAA